Paddy — WDF2429 — position and weather

sailwx.info

Track history (hours):
 
Tides and Currents Weather Stations Pressure Air Temp Water Temp Dewpoint Dewpoint Depression Visibility Wind Speed Wind Dir Waves Ship Positions

Paddy

Owner: Enterprise Marine Services, LLC, San Antonio, TX. More information available from US FCC via Universal Licensing System and Coast Guard Vessel Documentation Center.

Last reported at 2017-Oct-13 06:58 UTC. Time now 2017-Oct-18 18:27 UTC.
Position N 29°03' W 095°13'.

Length 21 m; draft 3 m.

Type: . MMSI: 367003770.

Date/timePositionNaut miles runAvg speedWind from/ knotsBaromVisibWave heightAir tempDewpointWater temp
2017-Oct-13 06:58N 29°03' W 095°13'91 3.4
2017-Oct-12 04:29N 29°58' W 093°50'3 5.8
2017-Oct-12 03:58N 29°59' W 093°47'3 5.5
2017-Oct-12 03:29N 30°01' W 093°45'3 5.3
2017-Oct-12 03:00N 30°03' W 093°43'3 5.4
2017-Oct-12 02:30N 30°04' W 093°40'3 5.6
2017-Oct-12 02:00N 30°04' W 093°37'3 5.2
2017-Oct-12 01:30N 30°04' W 093°34'2 3.7
2017-Oct-12 01:00N 30°04' W 093°32'2 5.0
2017-Oct-12 00:30N 30°04' W 093°29'2 4.7
2017-Oct-12 00:00N 30°04' W 093°26'2 4.8
2017-Oct-11 23:30N 30°04' W 093°23'2 4.2
2017-Oct-11 23:00N 30°04' W 093°21'2 4.3
2017-Oct-11 22:30N 30°06' W 093°19'1 1.8
2017-Oct-11 22:00N 30°06' W 093°19'0 0.6
2017-Oct-11 21:30N 30°06' W 093°18'1 2.2
2017-Oct-11 21:00N 30°05' W 093°18'1 1.8
2017-Oct-11 20:30N 30°05' W 093°17'0 0.1
2017-Oct-11 20:00N 30°05' W 093°17'0 0.0
2017-Oct-11 19:30N 30°05' W 093°17'0 0.0
2017-Oct-11 19:00N 30°05' W 093°17'0 0.1
2017-Oct-11 18:30N 30°05' W 093°17'0 0.0
2017-Oct-11 18:00N 30°05' W 093°17'0 1.0
2017-Oct-11 17:30N 30°04' W 093°16'0 0.0
2017-Oct-11 17:00N 30°04' W 093°16'62 3.7
2017-Oct-11 00:00N 29°48' W 092°07'3 5.8
2017-Oct-10 23:30N 29°49' W 092°04'61 4.2
2017-Oct-10 09:11N 29°34' W 090°56'1 4.6
2017-Oct-10 08:57N 29°33' W 090°55'3 4.7
2017-Oct-10 08:24N 29°32' W 090°52'2 4.7
2017-Oct-10 08:00N 29°32' W 090°50'3 5.4
2017-Oct-10 07:30N 29°32' W 090°47'2 5.0
2017-Oct-10 07:00N 29°34' W 090°45'2 3.5
2017-Oct-10 06:30N 29°35' W 090°43'2 4.0
2017-Oct-10 06:00N 29°37' W 090°42'1 1.2
2017-Oct-10 05:30N 29°37' W 090°42'1 1.1
2017-Oct-10 05:00N 29°36' W 090°41'1 1.6
2017-Oct-10 04:30N 29°36' W 090°40'0 0.0
2017-Oct-10 04:00N 29°36' W 090°40'1 1.7
2017-Oct-10 03:30N 29°36' W 090°40'3 5.7
2017-Oct-10 03:00N 29°35' W 090°37'3 5.8
2017-Oct-10 02:30N 29°34' W 090°33'  
Track history (hours):
 
Tides and Currents Weather Stations Pressure Air Temp Water Temp Dewpoint Dewpoint Depression Visibility Wind Speed Wind Dir Waves Ship Positions

Paddy

Owner: Enterprise Marine Services, LLC, San Antonio, TX. More information available from US FCC via Universal Licensing System and Coast Guard Vessel Documentation Center.

Last reported at 2017-Oct-13 06:58 UTC. Time now 2017-Oct-18 18:27 UTC.
Position N 29°03' W 095°13'.

Length 21 m; draft 3 m.

Type: . MMSI: 367003770.

Date/timePositionNaut miles runAvg speedWind from/ knotsBaromVisibWave heightAir tempDewpointWater temp
2017-Oct-13 06:58N 29°03' W 095°13'91 3.4
2017-Oct-12 04:29N 29°58' W 093°50'3 5.8
2017-Oct-12 03:58N 29°59' W 093°47'3 5.5
2017-Oct-12 03:29N 30°01' W 093°45'3 5.3
2017-Oct-12 03:00N 30°03' W 093°43'3 5.4
2017-Oct-12 02:30N 30°04' W 093°40'3 5.6
2017-Oct-12 02:00N 30°04' W 093°37'3 5.2
2017-Oct-12 01:30N 30°04' W 093°34'2 3.7
2017-Oct-12 01:00N 30°04' W 093°32'2 5.0
2017-Oct-12 00:30N 30°04' W 093°29'2 4.7
2017-Oct-12 00:00N 30°04' W 093°26'2 4.8
2017-Oct-11 23:30N 30°04' W 093°23'2 4.2
2017-Oct-11 23:00N 30°04' W 093°21'2 4.3
2017-Oct-11 22:30N 30°06' W 093°19'1 1.8
2017-Oct-11 22:00N 30°06' W 093°19'0 0.6
2017-Oct-11 21:30N 30°06' W 093°18'1 2.2
2017-Oct-11 21:00N 30°05' W 093°18'1 1.8
2017-Oct-11 20:30N 30°05' W 093°17'0 0.1
2017-Oct-11 20:00N 30°05' W 093°17'0 0.0
2017-Oct-11 19:30N 30°05' W 093°17'0 0.0
2017-Oct-11 19:00N 30°05' W 093°17'0 0.1
2017-Oct-11 18:30N 30°05' W 093°17'0 0.0
2017-Oct-11 18:00N 30°05' W 093°17'0 1.0
2017-Oct-11 17:30N 30°04' W 093°16'0 0.0
2017-Oct-11 17:00N 30°04' W 093°16'62 3.7
2017-Oct-11 00:00N 29°48' W 092°07'3 5.8
2017-Oct-10 23:30N 29°49' W 092°04'61 4.2
2017-Oct-10 09:11N 29°34' W 090°56'1 4.6
2017-Oct-10 08:57N 29°33' W 090°55'3 4.7
2017-Oct-10 08:24N 29°32' W 090°52'2 4.7
2017-Oct-10 08:00N 29°32' W 090°50'3 5.4
2017-Oct-10 07:30N 29°32' W 090°47'2 5.0
2017-Oct-10 07:00N 29°34' W 090°45'2 3.5
2017-Oct-10 06:30N 29°35' W 090°43'2 4.0
2017-Oct-10 06:00N 29°37' W 090°42'1 1.2
2017-Oct-10 05:30N 29°37' W 090°42'1 1.1
2017-Oct-10 05:00N 29°36' W 090°41'1 1.6
2017-Oct-10 04:30N 29°36' W 090°40'0 0.0
2017-Oct-10 04:00N 29°36' W 090°40'1 1.7
2017-Oct-10 03:30N 29°36' W 090°40'3 5.7
2017-Oct-10 03:00N 29°35' W 090°37'3 5.8
2017-Oct-10 02:30N 29°34' W 090°33'  

Dump ship's entire track history